createdAt,value
2022-12-01T00:02:30.842Z,12.65
2022-12-01T00:04:33.781Z,15.35
2022-12-01T00:06:37.923Z,15.88
2022-12-01T00:08:40.790Z,14.40
2022-12-01T00:10:42.613Z,15.15
2022-12-01T00:12:45.508Z,13.98
2022-12-01T00:14:54.959Z,13.70
2022-12-01T00:16:57.954Z,14.20
2022-12-01T00:19:00.827Z,13.68
2022-12-01T00:21:03.625Z,14.32
2022-12-01T00:23:06.584Z,15.20
2022-12-01T00:25:09.456Z,15.27
2022-12-01T00:27:12.214Z,16.45
2022-12-01T00:29:15.056Z,13.07
2022-12-01T00:31:19.376Z,13.30
2022-12-01T00:33:22.208Z,14.88
2022-12-01T00:35:24.975Z,13.82
2022-12-01T00:37:27.863Z,16.00
2022-12-01T00:39:30.975Z,14.05
2022-12-01T00:41:33.791Z,13.07
2022-12-01T00:43:36.836Z,14.00
2022-12-01T00:45:39.685Z,58.78
2022-12-01T00:47:43.923Z,19.27
2022-12-01T00:49:47.095Z,13.30
2022-12-01T00:51:50.097Z,15.73
2022-12-01T00:53:53.119Z,15.23
2022-12-01T00:55:56.096Z,13.98
2022-12-01T00:57:58.904Z,14.85
2022-12-01T01:00:01.707Z,15.68
2022-12-01T01:02:05.750Z,14.82
2022-12-01T01:04:09.933Z,13.90
2022-12-01T01:06:13.711Z,15.00
2022-12-01T01:08:16.514Z,15.68
2022-12-01T01:10:19.452Z,15.68
2022-12-01T01:12:22.262Z,16.67
2022-12-01T01:14:25.306Z,14.82
2022-12-01T01:16:28.310Z,15.27
2022-12-01T01:18:31.714Z,15.13
2022-12-01T01:20:35.861Z,14.65
2022-12-01T01:22:38.653Z,15.05
2022-12-01T01:24:41.442Z,13.35
2022-12-01T01:26:44.422Z,14.07
2022-12-01T01:28:47.719Z,16.20
2022-12-01T01:30:50.605Z,15.70
2022-12-01T01:32:53.486Z,14.60
2022-12-01T01:34:56.440Z,16.88
2022-12-01T01:37:00.617Z,14.55
2022-12-01T01:39:03.650Z,16.33
2022-12-01T01:41:07.504Z,15.90
2022-12-01T01:43:15.847Z,15.32
2022-12-01T01:45:23.249Z,14.82
2022-12-01T01:47:29.366Z,16.17
2022-12-01T01:49:32.226Z,16.05
2022-12-01T01:51:39.734Z,15.00
2022-12-01T01:53:46.450Z,16.10
2022-12-01T01:55:49.466Z,16.50
2022-12-01T01:57:52.601Z,21.00
2022-12-01T02:00:00.038Z,30.48
2022-12-01T02:02:06.420Z,23.35
2022-12-01T02:04:10.147Z,17.42
2022-12-01T02:06:13.719Z,44.90
2022-12-01T02:08:16.853Z,19.95
2022-12-01T02:10:23.266Z,17.48
2022-12-01T02:12:50.970Z,18.25
2022-12-01T02:15:07.615Z,15.77
2022-12-01T02:17:22.429Z,17.58
2022-12-01T02:19:52.869Z,16.65
2022-12-01T02:22:04.230Z,16.63
2022-12-01T02:24:49.700Z,16.75
2022-12-01T02:26:57.836Z,16.65
2022-12-01T02:29:25.773Z,17.45
2022-12-01T02:31:40.793Z,17.63
2022-12-01T02:33:54.719Z,18.50
2022-12-01T02:36:04.890Z,18.65
2022-12-01T02:38:14.536Z,16.63
2022-12-01T02:40:25.732Z,18.55
2022-12-01T02:42:53.581Z,18.13
2022-12-01T02:44:58.576Z,18.45
2022-12-01T02:47:10.341Z,18.73
2022-12-01T02:49:17.854Z,17.10
2022-12-01T02:51:24.989Z,18.10
2022-12-01T02:53:27.971Z,18.33
2022-12-01T02:55:30.761Z,18.55
2022-12-01T02:57:33.610Z,19.92
2022-12-01T02:59:56.745Z,19.08
2022-12-01T03:02:12.080Z,19.20
2022-12-01T03:06:38.132Z,16.73
2022-12-01T03:08:49.265Z,17.95
2022-12-01T03:10:55.236Z,16.77
2022-12-01T03:13:17.505Z,19.65
2022-12-01T03:15:31.647Z,19.67
2022-12-01T03:17:40.900Z,17.73
2022-12-01T03:19:47.322Z,16.58
2022-12-01T03:21:55.976Z,18.77
2022-12-01T03:24:03.366Z,18.50
2022-12-01T03:26:09.303Z,18.42
2022-12-01T03:28:21.019Z,19.27
2022-12-01T03:30:25.931Z,17.17
2022-12-01T03:32:32.857Z,21.55
2022-12-01T03:34:43.134Z,19.02
2022-12-01T03:36:51.006Z,16.67
2022-12-01T03:39:00.083Z,15.88
2022-12-01T03:41:06.450Z,15.77
2022-12-01T03:43:11.930Z,15.13
2022-12-01T03:45:19.162Z,15.40
2022-12-01T03:47:25.350Z,14.35
2022-12-01T03:49:28.856Z,14.18
2022-12-01T03:51:45.347Z,12.18
2022-12-01T03:53:53.990Z,13.85
2022-12-01T03:56:02.265Z,13.20
2022-12-01T03:58:10.226Z,14.07
2022-12-01T04:00:16.916Z,12.65
2022-12-01T04:02:19.696Z,13.32
2022-12-01T04:04:22.696Z,15.02
2022-12-01T04:06:25.501Z,13.75
2022-12-01T04:08:30.635Z,14.43
2022-12-01T04:10:34.018Z,14.25
2022-12-01T04:12:35.834Z,14.63
2022-12-01T04:14:38.577Z,13.98
2022-12-01T04:16:41.343Z,14.10
2022-12-01T04:18:44.103Z,12.60
2022-12-01T04:20:47.120Z,13.35
2022-12-01T04:22:50.199Z,14.65
2022-12-01T04:24:54.736Z,14.70
2022-12-01T04:26:57.510Z,14.15
2022-12-01T04:29:00.543Z,13.07
2022-12-01T04:31:03.390Z,15.15
2022-12-01T04:33:06.407Z,13.90
2022-12-01T04:35:10.989Z,13.82
2022-12-01T04:37:13.792Z,12.85
2022-12-01T04:39:16.778Z,13.98
2022-12-01T04:41:21.068Z,14.95
2022-12-01T04:43:23.871Z,13.60
2022-12-01T04:45:26.704Z,12.30
2022-12-01T04:47:29.533Z,13.65
2022-12-01T04:49:34.853Z,13.70
2022-12-01T04:51:37.839Z,14.73
2022-12-01T04:53:40.741Z,15.07
2022-12-01T04:55:43.604Z,15.82
2022-12-01T04:57:47.755Z,14.45
2022-12-01T04:59:50.777Z,15.63
2022-12-01T05:01:53.791Z,14.38
2022-12-01T05:03:57.069Z,14.95
2022-12-01T05:06:03.639Z,13.60
2022-12-01T05:08:06.425Z,16.90
2022-12-01T05:10:10.052Z,15.13
2022-12-01T05:12:12.824Z,15.30
2022-12-01T05:14:16.990Z,15.38
2022-12-01T05:16:22.135Z,13.48
2022-12-01T05:18:25.155Z,13.60
2022-12-01T05:20:46.262Z,14.05
2022-12-01T05:23:06.062Z,13.88
2022-12-01T05:25:09.755Z,14.60
2022-12-01T05:27:12.574Z,13.52
2022-12-01T05:29:17.073Z,14.35
2022-12-01T05:31:19.969Z,14.00
2022-12-01T05:33:24.101Z,14.63
2022-12-01T05:35:26.942Z,13.77
2022-12-01T05:37:33.141Z,12.27
2022-12-01T05:39:35.928Z,12.57
2022-12-01T05:41:38.672Z,12.68
2022-12-01T05:43:41.489Z,12.88
2022-12-01T05:45:45.639Z,14.23
2022-12-01T05:47:48.432Z,12.30
2022-12-01T05:49:51.616Z,12.82
2022-12-01T05:51:54.477Z,12.10
2022-12-01T05:53:57.316Z,13.15
2022-12-01T05:56:00.051Z,13.07
2022-12-01T05:58:03.267Z,14.32
2022-12-01T06:00:07.508Z,13.30
2022-12-01T06:02:17.723Z,14.93
2022-12-01T06:04:20.739Z,14.13
2022-12-01T06:06:23.659Z,14.32
2022-12-01T06:08:26.465Z,15.05
2022-12-01T06:10:29.475Z,13.52
2022-12-01T06:12:32.324Z,14.40
2022-12-01T06:14:35.166Z,13.85
2022-12-01T06:16:38.306Z,15.50
2022-12-01T06:18:42.573Z,16.58
2022-12-01T06:20:45.456Z,13.77
2022-12-01T06:22:49.406Z,15.15
2022-12-01T06:24:52.545Z,13.55
2022-12-01T06:26:55.458Z,15.68
2022-12-01T06:28:58.364Z,14.55
2022-12-01T06:31:03.563Z,15.10
2022-12-01T06:33:06.818Z,14.88
2022-12-01T06:35:11.158Z,15.85
2022-12-01T06:37:15.483Z,15.52
2022-12-01T06:39:18.761Z,14.60
2022-12-01T06:41:21.556Z,15.40
2022-12-01T06:43:24.425Z,15.18
2022-12-01T06:45:27.247Z,14.35
2022-12-01T06:47:30.050Z,14.20
2022-12-01T06:49:32.800Z,12.68
2022-12-01T06:51:36.969Z,13.20
2022-12-01T06:53:39.823Z,13.68
2022-12-01T06:55:42.596Z,13.30
2022-12-01T06:57:45.798Z,13.25
2022-12-01T06:59:49.320Z,12.32
2022-12-01T07:01:53.033Z,12.60
2022-12-01T07:03:55.946Z,12.77
2022-12-01T07:06:00.146Z,14.18
2022-12-01T07:08:06.733Z,13.63
2022-12-01T07:10:11.708Z,14.45
2022-12-01T07:14:21.092Z,12.40
2022-12-01T07:16:24.046Z,14.27
2022-12-01T07:18:26.967Z,13.15
2022-12-01T07:20:29.822Z,14.00
2022-12-01T07:22:33.123Z,12.90
2022-12-01T07:24:37.345Z,13.10
2022-12-01T07:26:41.081Z,13.65
2022-12-01T07:28:44.794Z,14.05
2022-12-01T07:30:47.650Z,15.00
2022-12-01T07:32:50.533Z,15.27
2022-12-01T07:34:53.407Z,13.18
2022-12-01T07:36:56.201Z,13.80
2022-12-01T07:38:58.945Z,14.07
2022-12-01T07:41:08.128Z,13.05
2022-12-01T07:43:10.905Z,12.93
2022-12-01T07:45:13.754Z,12.32
2022-12-01T07:47:16.571Z,11.75
2022-12-01T07:49:19.489Z,11.85
2022-12-01T07:51:24.194Z,12.18
2022-12-01T07:53:26.982Z,11.50
2022-12-01T07:55:29.771Z,11.00
2022-12-01T07:57:33.942Z,8.32
2022-12-01T07:59:36.818Z,10.38
2022-12-01T08:01:44.237Z,10.52
2022-12-01T08:03:49.007Z,10.80
2022-12-01T08:05:58.071Z,12.00
2022-12-01T08:08:00.943Z,10.90
2022-12-01T08:10:03.837Z,13.63
2022-12-01T08:12:07.180Z,13.10
2022-12-01T08:14:11.361Z,12.27
2022-12-01T08:16:16.432Z,14.20
2022-12-01T08:18:19.320Z,12.52
2022-12-01T08:20:24.183Z,13.80
2022-12-01T08:24:29.645Z,13.52
2022-12-01T08:26:32.532Z,13.77
2022-12-01T08:28:37.154Z,12.05
2022-12-01T08:30:41.365Z,13.10
2022-12-01T08:32:44.226Z,11.80
2022-12-01T08:34:53.010Z,11.48
2022-12-01T08:36:56.256Z,10.90
2022-12-01T08:38:59.061Z,12.48
2022-12-01T08:41:02.555Z,11.77
2022-12-01T08:43:06.647Z,11.45
2022-12-01T08:45:10.625Z,12.23
2022-12-01T08:47:18.708Z,12.40
2022-12-01T08:49:22.840Z,11.45
2022-12-01T08:51:26.373Z,11.10
2022-12-01T08:53:29.352Z,11.15
2022-12-01T08:55:32.170Z,11.55
2022-12-01T08:57:35.118Z,12.52
2022-12-01T08:59:37.976Z,12.00
2022-12-01T09:01:51.996Z,12.52
2022-12-01T09:04:06.614Z,12.65
2022-12-01T09:06:11.413Z,14.20
2022-12-01T09:08:32.353Z,13.90
2022-12-01T09:10:35.286Z,14.98
2022-12-01T09:12:38.040Z,13.30
2022-12-01T09:14:42.260Z,15.88
2022-12-01T09:16:47.157Z,14.45
2022-12-01T09:20:54.761Z,12.07
2022-12-01T09:22:57.596Z,13.30
2022-12-01T09:25:00.374Z,13.30
2022-12-01T09:27:03.746Z,13.30
2022-12-01T09:29:08.578Z,14.05
2022-12-01T09:31:12.768Z,14.18
2022-12-01T09:33:16.569Z,13.25
2022-12-01T09:35:23.432Z,13.60
2022-12-01T09:37:27.848Z,13.05
2022-12-01T09:39:30.891Z,12.57
2022-12-01T09:41:36.354Z,12.73
2022-12-01T09:43:42.412Z,11.60
2022-12-01T09:45:52.476Z,11.30
2022-12-01T09:47:58.038Z,11.95
2022-12-01T09:50:03.885Z,11.15
2022-12-01T09:52:10.543Z,12.73
2022-12-01T09:54:16.019Z,11.23
2022-12-01T09:56:22.175Z,11.77
2022-12-01T09:58:31.516Z,11.98
2022-12-01T10:00:39.139Z,11.90
2022-12-01T10:02:44.941Z,11.95
2022-12-01T10:04:51.854Z,11.23
2022-12-01T10:07:00.321Z,12.63
2022-12-01T10:09:13.087Z,12.10
2022-12-01T10:11:28.843Z,12.10
2022-12-01T10:13:34.926Z,11.80
2022-12-01T10:15:46.661Z,11.85
2022-12-01T10:18:01.132Z,12.30
2022-12-01T10:20:11.650Z,11.13
2022-12-01T10:22:31.031Z,12.23
2022-12-01T10:24:47.777Z,11.00
2022-12-01T10:26:57.977Z,12.68
2022-12-01T10:29:14.604Z,12.93
2022-12-01T10:31:21.158Z,11.98
2022-12-01T10:33:26.144Z,12.13
2022-12-01T10:35:36.120Z,11.75
2022-12-01T10:37:40.021Z,12.57
2022-12-01T10:39:46.358Z,12.52
2022-12-01T10:41:50.698Z,12.43
2022-12-01T10:44:00.783Z,12.32
2022-12-01T10:46:14.710Z,13.23
2022-12-01T10:48:20.403Z,13.85
2022-12-01T10:50:27.648Z,13.60
2022-12-01T10:52:34.573Z,12.25
2022-12-01T10:54:39.330Z,13.00
2022-12-01T10:56:44.061Z,11.98
2022-12-01T10:58:49.612Z,13.88
2022-12-01T11:01:00.885Z,12.82
2022-12-01T11:03:05.407Z,12.77
2022-12-01T11:05:22.032Z,11.43
2022-12-01T11:07:27.999Z,14.55
2022-12-01T11:09:32.346Z,12.05
2022-12-01T11:11:38.223Z,13.30
2022-12-01T11:13:43.285Z,12.55
2022-12-01T11:15:52.551Z,12.45
2022-12-01T11:18:02.037Z,13.00
2022-12-01T11:20:28.004Z,12.93
2022-12-01T11:22:32.152Z,11.57
2022-12-01T11:24:42.870Z,12.27
2022-12-01T11:26:45.743Z,13.40
2022-12-01T11:28:54.449Z,13.20
2022-12-01T11:30:58.568Z,13.13
2022-12-01T11:33:04.200Z,12.65
2022-12-01T11:35:17.739Z,13.05
2022-12-01T11:37:24.033Z,12.82
2022-12-01T11:39:28.772Z,13.15
2022-12-01T11:41:36.228Z,11.95
2022-12-01T11:43:42.618Z,13.23
2022-12-01T11:45:49.670Z,12.73
2022-12-01T11:48:06.579Z,13.27
2022-12-01T11:50:25.817Z,13.82
2022-12-01T11:52:33.666Z,13.73
2022-12-01T11:54:36.486Z,12.90
2022-12-01T11:56:39.299Z,12.80
2022-12-01T11:58:42.587Z,14.63
2022-12-01T12:00:51.193Z,14.25
2022-12-01T12:03:16.242Z,13.13
2022-12-01T12:05:46.765Z,13.98
2022-12-01T12:08:01.725Z,15.23
2022-12-01T12:10:22.850Z,13.43
2022-12-01T12:12:40.222Z,13.02
2022-12-01T12:14:56.210Z,11.45
2022-12-01T12:17:14.636Z,12.48
2022-12-01T12:22:26.923Z,13.20
2022-12-01T12:24:40.387Z,12.52
2022-12-01T12:26:50.859Z,12.93
2022-12-01T12:29:07.080Z,12.63
2022-12-01T12:31:22.355Z,12.00
2022-12-01T12:34:01.802Z,11.43
2022-12-01T12:36:14.681Z,13.18
2022-12-01T12:38:35.148Z,11.63
2022-12-01T12:40:43.699Z,11.73
2022-12-01T12:42:59.972Z,12.38
2022-12-01T12:45:09.303Z,13.27
2022-12-01T12:47:26.330Z,12.70
2022-12-01T12:49:38.099Z,13.43
2022-12-01T12:51:45.791Z,13.57
2022-12-01T12:53:54.048Z,13.07
2022-12-01T12:56:03.284Z,13.25
2022-12-01T12:58:12.422Z,12.73
2022-12-01T13:00:18.379Z,13.68
2022-12-01T13:02:27.192Z,13.05
2022-12-01T13:04:38.622Z,13.50
2022-12-01T13:06:48.278Z,12.23
2022-12-01T13:08:56.104Z,12.93
2022-12-01T13:11:04.042Z,13.52
2022-12-01T13:13:25.342Z,14.48
2022-12-01T13:15:29.897Z,14.68
2022-12-01T13:17:37.418Z,13.80
2022-12-01T13:19:42.581Z,12.57
2022-12-01T13:21:49.080Z,13.38
2022-12-01T13:23:53.740Z,14.23
2022-12-01T13:26:00.099Z,13.63
2022-12-01T13:28:04.381Z,13.38
2022-12-01T13:30:19.039Z,13.00
2022-12-01T13:32:31.779Z,13.30
2022-12-01T13:34:40.618Z,13.90
2022-12-01T13:36:51.221Z,12.40
2022-12-01T13:38:59.990Z,13.80
2022-12-01T13:41:14.700Z,12.85
2022-12-01T13:43:20.530Z,14.27
2022-12-01T13:45:23.788Z,13.15
2022-12-01T13:47:48.878Z,14.63
2022-12-01T13:49:53.691Z,12.95
2022-12-01T13:54:31.331Z,12.73
2022-12-01T13:56:41.138Z,13.18
2022-12-01T13:58:47.716Z,12.30
2022-12-01T14:00:51.340Z,13.13
2022-12-01T14:03:31.735Z,12.18
2022-12-01T14:05:45.949Z,13.05
2022-12-01T14:07:50.470Z,12.73
2022-12-01T14:09:58.663Z,13.07
2022-12-01T14:12:03.935Z,12.43
2022-12-01T14:14:24.259Z,12.43
2022-12-01T14:16:48.117Z,11.30
2022-12-01T14:18:54.862Z,11.68
2022-12-01T14:20:57.937Z,12.02
2022-12-01T14:23:13.147Z,11.50
2022-12-01T14:25:29.117Z,11.68
2022-12-01T14:27:38.827Z,11.32
2022-12-01T14:29:43.077Z,12.65
2022-12-01T14:32:18.538Z,12.32
2022-12-01T14:34:24.496Z,12.83
2022-12-01T14:36:48.435Z,14.15
2022-12-01T14:38:53.478Z,12.27
2022-12-01T14:40:57.780Z,12.25
2022-12-01T14:43:18.523Z,13.20
2022-12-01T14:45:24.809Z,11.90
2022-12-01T14:47:34.998Z,12.70
2022-12-01T14:49:43.023Z,11.20
2022-12-01T14:51:50.850Z,11.98
2022-12-01T14:53:55.905Z,11.75
2022-12-01T14:56:02.821Z,11.30
2022-12-01T14:58:08.898Z,13.23
2022-12-01T15:00:15.346Z,11.60
2022-12-01T15:02:18.239Z,11.75
2022-12-01T15:04:21.124Z,11.20
2022-12-01T15:06:26.242Z,12.48
2022-12-01T15:09:03.960Z,13.15
2022-12-01T15:10:56.902Z,11.60
2022-12-01T15:13:13.974Z,11.63
2022-12-01T15:15:23.666Z,11.93
2022-12-01T15:17:31.226Z,13.18
2022-12-01T15:19:37.217Z,12.07
2022-12-01T15:21:40.094Z,11.80
2022-12-01T15:24:05.226Z,12.38
2022-12-01T15:26:07.995Z,13.32
2022-12-01T15:28:15.165Z,14.10
2022-12-01T15:30:19.110Z,13.57
2022-12-01T15:32:23.888Z,13.90
2022-12-01T15:34:31.733Z,13.88
2022-12-01T15:36:34.652Z,14.50
2022-12-01T15:38:38.898Z,14.20
2022-12-01T15:41:20.732Z,15.32
2022-12-01T15:43:15.358Z,14.48
2022-12-01T15:45:21.676Z,15.13
2022-12-01T15:47:36.866Z,12.95
2022-12-01T15:49:49.581Z,14.43
2022-12-01T15:51:53.169Z,15.95
2022-12-01T15:53:59.140Z,16.25
2022-12-01T15:56:05.633Z,16.38
2022-12-01T15:58:10.275Z,18.92
2022-12-01T16:00:20.797Z,18.48
2022-12-01T16:02:28.189Z,19.35
2022-12-01T16:04:33.111Z,18.30
2022-12-01T16:06:38.521Z,17.50
2022-12-01T16:08:41.665Z,18.17
2022-12-01T16:10:44.521Z,17.15
2022-12-01T16:12:47.397Z,18.20
2022-12-01T16:14:53.671Z,17.30
2022-12-01T16:16:57.889Z,19.30
2022-12-01T16:19:03.112Z,19.05
2022-12-01T16:21:07.129Z,18.08
2022-12-01T16:23:12.368Z,17.90
2022-12-01T16:25:20.250Z,18.10
2022-12-01T16:27:25.337Z,19.65
2022-12-01T16:29:31.227Z,18.25
2022-12-01T16:31:34.269Z,18.50
2022-12-01T16:33:40.687Z,18.92
2022-12-01T16:35:45.533Z,19.33
2022-12-01T16:37:48.407Z,19.30
2022-12-01T16:39:51.765Z,21.13
2022-12-01T16:41:59.602Z,19.65
2022-12-01T16:44:26.914Z,19.85
2022-12-01T16:46:25.446Z,19.48
2022-12-01T16:48:28.367Z,20.27
2022-12-01T16:50:32.534Z,21.95
2022-12-01T16:52:43.749Z,21.08
2022-12-01T16:54:49.689Z,21.20
2022-12-01T16:56:52.719Z,21.00
2022-12-01T16:58:55.476Z,21.52
2022-12-01T17:00:58.774Z,20.85
2022-12-01T17:03:02.550Z,20.30
2022-12-01T17:05:05.951Z,21.90
2022-12-01T17:07:10.065Z,23.08
2022-12-01T17:09:12.875Z,21.55
2022-12-01T17:11:16.284Z,19.77
2022-12-01T17:13:19.778Z,19.85
2022-12-01T17:15:22.667Z,21.48
2022-12-01T17:17:25.460Z,21.83
2022-12-01T17:19:28.290Z,20.30
2022-12-01T17:21:32.343Z,21.70
2022-12-01T17:23:38.574Z,20.63
2022-12-01T17:25:42.023Z,21.38
2022-12-01T17:27:45.722Z,22.13
2022-12-01T17:29:48.616Z,20.45
2022-12-01T17:31:51.455Z,20.40
2022-12-01T17:33:54.675Z,21.05
2022-12-01T17:36:01.323Z,20.70
2022-12-01T17:38:04.146Z,20.10
2022-12-01T17:40:13.731Z,22.27
2022-12-01T17:42:16.837Z,21.70
2022-12-01T17:44:19.640Z,21.35
2022-12-01T17:46:23.628Z,21.85
2022-12-01T17:48:26.767Z,20.10
2022-12-01T17:50:31.850Z,19.92
2022-12-01T17:52:34.671Z,22.08
2022-12-01T17:54:38.211Z,19.55
2022-12-01T17:56:42.651Z,21.30
2022-12-01T17:58:45.649Z,19.13
2022-12-01T18:00:49.878Z,21.55
2022-12-01T18:02:53.116Z,22.63
2022-12-01T18:04:55.995Z,21.88
2022-12-01T18:06:58.830Z,22.08
2022-12-01T18:09:02.222Z,21.63
2022-12-01T18:11:08.037Z,21.40
2022-12-01T18:13:12.267Z,21.65
2022-12-01T18:15:15.454Z,22.08
2022-12-01T18:17:18.454Z,20.75
2022-12-01T18:19:22.002Z,22.10
2022-12-01T18:21:26.026Z,20.48
2022-12-01T18:23:28.962Z,22.23
2022-12-01T18:25:31.729Z,21.02
2022-12-01T18:27:34.983Z,21.50
2022-12-01T18:29:39.222Z,21.95
2022-12-01T18:31:42.062Z,23.92
2022-12-01T18:33:45.944Z,19.00
2022-12-01T18:35:48.784Z,21.80
2022-12-01T18:37:51.591Z,23.88
2022-12-01T18:39:56.338Z,21.65
2022-12-01T18:41:59.208Z,22.13
2022-12-01T18:44:02.356Z,22.23
2022-12-01T18:46:07.661Z,22.65
2022-12-01T18:48:10.499Z,21.63
2022-12-01T18:50:13.475Z,21.55
2022-12-01T18:52:16.368Z,22.48
2022-12-01T18:54:19.178Z,22.27
2022-12-01T18:56:22.894Z,21.95
2022-12-01T18:58:25.764Z,21.13
2022-12-01T19:00:28.930Z,23.70
2022-12-01T19:02:33.214Z,22.60
2022-12-01T19:04:36.123Z,21.90
2022-12-01T19:06:40.832Z,23.65
2022-12-01T19:08:44.067Z,22.98
2022-12-01T19:10:46.888Z,22.17
2022-12-01T19:12:49.680Z,23.83
2022-12-01T19:14:54.095Z,23.45
2022-12-01T19:16:57.857Z,22.85
2022-12-01T19:19:02.867Z,21.63
2022-12-01T19:21:07.359Z,22.63
2022-12-01T19:23:10.242Z,23.50
2022-12-01T19:25:13.547Z,23.67
2022-12-01T19:27:16.445Z,23.08
2022-12-01T19:29:19.300Z,22.63
2022-12-01T19:31:24.225Z,21.77
2022-12-01T19:35:32.473Z,20.90
2022-12-01T19:37:35.298Z,23.55
2022-12-01T19:39:38.227Z,22.38
2022-12-01T19:41:41.117Z,22.67
2022-12-01T19:43:44.058Z,21.38
2022-12-01T19:45:46.958Z,24.38
2022-12-01T19:47:51.164Z,23.80
2022-12-01T19:49:53.926Z,22.48
2022-12-01T19:51:58.047Z,21.05
2022-12-01T19:54:00.908Z,24.73
2022-12-01T19:56:05.292Z,22.98
2022-12-01T19:58:08.586Z,23.60
2022-12-01T20:00:12.778Z,24.10
2022-12-01T20:02:15.631Z,21.25
2022-12-01T20:04:18.751Z,23.77
2022-12-01T20:06:23.573Z,23.73
2022-12-01T20:08:27.689Z,24.02
2022-12-01T20:10:30.511Z,25.90
2022-12-01T20:12:34.957Z,25.52
2022-12-01T20:14:38.001Z,24.77
2022-12-01T20:16:41.394Z,23.55
2022-12-01T20:18:44.689Z,26.00
2022-12-01T20:21:03.351Z,25.50
2022-12-01T20:23:06.264Z,25.55
2022-12-01T20:25:10.595Z,26.02
2022-12-01T20:27:13.395Z,22.42
2022-12-01T20:29:18.136Z,27.00
2022-12-01T20:31:24.875Z,24.23
2022-12-01T20:33:28.639Z,25.83
2022-12-01T20:35:31.485Z,25.38
2022-12-01T20:37:35.770Z,26.13
2022-12-01T20:39:41.315Z,25.75
2022-12-01T20:41:45.902Z,26.92
2022-12-01T20:43:49.024Z,23.95
2022-12-01T20:45:52.048Z,26.85
2022-12-01T20:47:54.965Z,26.27
2022-12-01T20:49:58.521Z,24.38
2022-12-01T20:52:01.509Z,24.40
2022-12-01T20:56:30.325Z,27.55
2022-12-01T20:58:37.457Z,25.63
2022-12-01T21:00:44.060Z,25.85
2022-12-01T21:02:47.804Z,26.02
2022-12-01T21:04:54.012Z,25.05
2022-12-01T21:06:59.376Z,26.83
2022-12-01T21:09:03.586Z,26.40
2022-12-01T21:11:08.316Z,25.00
2022-12-01T21:13:36.027Z,27.00
2022-12-01T21:15:50.804Z,27.77
2022-12-01T21:17:58.020Z,25.25
2022-12-01T21:20:07.573Z,26.77
2022-12-01T21:22:12.993Z,27.73
2022-12-01T21:24:18.719Z,28.40
2022-12-01T21:26:21.532Z,27.10
2022-12-01T21:28:26.399Z,25.65
2022-12-01T21:32:41.171Z,27.30
2022-12-01T21:34:48.153Z,26.33
2022-12-01T21:36:54.955Z,27.65
2022-12-01T21:39:09.414Z,27.80
2022-12-01T21:41:17.262Z,28.50
2022-12-01T21:43:22.559Z,28.13
2022-12-01T21:45:27.882Z,28.33
2022-12-01T21:47:31.539Z,28.10
2022-12-01T21:49:39.577Z,25.50
2022-12-01T21:51:42.617Z,26.25
2022-12-01T21:53:45.430Z,26.60
2022-12-01T21:55:49.275Z,25.65
2022-12-01T21:57:53.563Z,27.73
2022-12-01T22:00:06.971Z,27.63
2022-12-01T22:02:38.774Z,28.52
2022-12-01T22:04:43.470Z,28.75
2022-12-01T22:06:49.141Z,28.40
2022-12-01T22:08:54.019Z,25.40
2022-12-01T22:13:01.013Z,26.45
2022-12-01T22:15:29.012Z,26.30
2022-12-01T22:17:31.941Z,27.75
2022-12-01T22:19:36.329Z,26.25
2022-12-01T22:21:45.033Z,28.30
2022-12-01T22:23:47.982Z,24.08
2022-12-01T22:25:51.110Z,27.10
2022-12-01T22:27:54.526Z,27.30
2022-12-01T22:30:00.224Z,24.30
2022-12-01T22:32:32.536Z,26.52
2022-12-01T22:34:35.617Z,25.23
2022-12-01T22:36:38.421Z,27.45
2022-12-01T22:38:43.850Z,27.48
2022-12-01T22:40:54.590Z,25.83
2022-12-01T22:42:59.668Z,29.67
2022-12-01T22:45:15.614Z,28.15
2022-12-01T22:47:18.590Z,26.75
2022-12-01T22:49:24.449Z,28.05
2022-12-01T22:51:44.177Z,27.52
2022-12-01T22:53:49.126Z,27.98
2022-12-01T22:57:56.841Z,27.08
2022-12-01T23:00:13.364Z,26.80
2022-12-01T23:02:21.633Z,27.10
2022-12-01T23:04:27.459Z,26.73
2022-12-01T23:06:59.296Z,26.92
2022-12-01T23:09:04.574Z,27.48
2022-12-01T23:11:10.798Z,27.60
2022-12-01T23:13:16.152Z,27.52
2022-12-01T23:15:30.156Z,28.30
2022-12-01T23:17:35.592Z,27.65
2022-12-01T23:19:38.516Z,28.27
2022-12-01T23:21:41.433Z,26.88
2022-12-01T23:23:44.333Z,28.90
2022-12-01T23:25:50.931Z,27.02
2022-12-01T23:27:55.493Z,27.73
2022-12-01T23:29:58.274Z,27.88
2022-12-01T23:32:01.741Z,26.70
2022-12-01T23:34:10.315Z,27.25
2022-12-01T23:36:16.677Z,31.05
2022-12-01T23:38:22.308Z,27.50
2022-12-01T23:40:30.875Z,28.65
2022-12-01T23:42:35.059Z,29.45
2022-12-01T23:44:40.758Z,27.73
2022-12-01T23:46:43.990Z,30.27
2022-12-01T23:48:49.620Z,29.83
2022-12-01T23:50:55.376Z,27.33
2022-12-01T23:52:58.534Z,27.90
2022-12-01T23:55:01.761Z,29.48
2022-12-01T23:57:11.619Z,27.52
2022-12-01T23:59:15.840Z,26.23
